Time;durP1;ratioP1;P1;durP2;ratioP2;P2;SDS_P1;SDS_P2;PMS_P1;PMS_P2;Temp;Humidity;BMP_temperature;BMP_pressure;BME280_temperature;BME280_humidity;BME280_pressure;Samples;Min_cycle;Max_cycle;Signal;HPM_P1;HPM_P2
2024/03/13 00:01:36;;;;;;;12.68;7.22;;;;;;;;;;4966336;28;20041;-82
2024/03/13 00:04:21;;;;;;;8.77;5.43;;;;;;;;;;4943505;28;20037;-80
2024/03/13 00:07:10;;;;;;;8.93;5.50;;;;;;;;;;4965137;28;20026;-82
2024/03/13 00:09:56;;;;;;;10.73;5.72;;;;;;;;;;4966118;28;20061;-82
2024/03/13 00:12:42;;;;;;;10.35;4.85;;;;;;;;;;4952893;28;20022;-81
2024/03/13 00:15:28;;;;;;;8.80;4.63;;;;;;;;;;4958651;28;20053;-81
2024/03/13 00:18:14;;;;;;;6.82;3.97;;;;;;;;;;4968840;28;20393;-82
2024/03/13 00:21:00;;;;;;;8.27;4.88;;;;;;;;;;4967484;28;20459;-82
2024/03/13 00:23:46;;;;;;;7.28;3.67;;;;;;;;;;4951728;28;20031;-81
2024/03/13 00:26:33;;;;;;;8.38;3.85;;;;;;;;;;4957748;28;20031;-81
2024/03/13 00:29:18;;;;;;;5.55;2.95;;;;;;;;;;4951939;28;20058;-82
2024/03/13 00:32:04;;;;;;;8.40;3.83;;;;;;;;;;4953297;28;20019;-82
2024/03/13 00:34:49;;;;;;;7.05;3.50;;;;;;;;;;4956083;28;20022;-82
2024/03/13 00:37:35;;;;;;;7.03;3.92;;;;;;;;;;4956340;28;20034;-82
2024/03/13 00:40:20;;;;;;;6.90;3.58;;;;;;;;;;4952580;28;20030;-82
2024/03/13 00:43:05;;;;;;;8.25;3.70;;;;;;;;;;4968752;28;20062;-82
2024/03/13 00:45:51;;;;;;;9.57;3.50;;;;;;;;;;4956096;28;20038;-82
2024/03/13 00:48:37;;;;;;;6.03;3.65;;;;;;;;;;4950018;28;20035;-81
2024/03/13 00:51:22;;;;;;;7.97;3.65;;;;;;;;;;4966467;28;20065;-81
2024/03/13 00:54:08;;;;;;;4.82;3.17;;;;;;;;;;4953331;28;20035;-82
2024/03/13 00:56:55;;;;;;;7.00;2.70;;;;;;;;;;4948244;28;20031;-84
2024/03/13 00:59:40;;;;;;;6.20;2.80;;;;;;;;;;4958595;28;20030;-83
2024/03/13 01:02:26;;;;;;;5.13;2.40;;;;;;;;;;4955738;28;20034;-82
2024/03/13 01:05:15;;;;;;;4.95;2.45;;;;;;;;;;4956184;28;20034;-84
2024/03/13 01:08:00;;;;;;;5.63;2.78;;;;;;;;;;4955774;28;20022;-81
2024/03/13 01:10:46;;;;;;;7.82;2.55;;;;;;;;;;4957508;28;20070;-82
2024/03/13 01:13:32;;;;;;;4.40;2.38;;;;;;;;;;4969017;28;20034;-83
2024/03/13 01:16:17;;;;;;;4.90;2.58;;;;;;;;;;4978508;28;20109;-82
2024/03/13 01:19:02;;;;;;;5.60;2.55;;;;;;;;;;4990237;28;20023;-83
2024/03/13 01:21:52;;;;;;;3.60;2.05;;;;;;;;;;4977019;28;20018;-82
2024/03/13 01:24:38;;;;;;;4.53;2.30;;;;;;;;;;4979130;28;20025;-80
2024/03/13 01:27:23;;;;;;;2.95;1.73;;;;;;;;;;4961677;28;20394;-81
2024/03/13 01:30:09;;;;;;;1.90;1.70;;;;;;;;;;4954974;28;20485;-80
2024/03/13 01:32:54;;;;;;;4.05;1.92;;;;;;;;;;4955382;28;20027;-81
2024/03/13 01:35:40;;;;;;;3.35;1.80;;;;;;;;;;4949922;28;20057;-82
2024/03/13 01:38:25;;;;;;;2.35;1.30;;;;;;;;;;4956105;28;20066;-80
2024/03/13 01:56:32;;;;;;;3.17;1.67;;;;;;;;;;4954884;28;20023;-81
2024/03/13 01:59:20;;;;;;;2.60;1.40;;;;;;;;;;4967714;28;20524;-82
2024/03/13 02:02:24;;;;;;;2.20;1.38;;;;;;;;;;4954492;28;20097;-80
2024/03/13 02:05:10;;;;;;;3.85;1.60;;;;;;;;;;4952988;28;20129;-81
2024/03/13 02:07:55;;;;;;;4.72;1.60;;;;;;;;;;4958071;28;20117;-82
2024/03/13 02:10:40;;;;;;;2.28;1.52;;;;;;;;;;4947129;29;20068;-83
2024/03/13 02:13:26;;;;;;;5.80;1.60;;;;;;;;;;4961864;28;20039;-82
2024/03/13 02:16:11;;;;;;;6.40;2.00;;;;;;;;;;4948092;28;20179;-83
2024/03/13 02:19:01;;;;;;;3.55;1.27;;;;;;;;;;4935986;29;20199;-81
2024/03/13 02:21:47;;;;;;;1.10;1.00;;;;;;;;;;4948989;28;20463;-81
2024/03/13 02:24:35;;;;;;;1.63;1.23;;;;;;;;;;4946365;29;20031;-82
2024/03/13 02:27:21;;;;;;;1.92;1.10;;;;;;;;;;4939530;28;20065;-83
2024/03/13 02:30:06;;;;;;;1.23;1.10;;;;;;;;;;4929608;29;20252;-82
2024/03/13 02:32:52;;;;;;;1.30;0.85;;;;;;;;;;4945453;29;20019;-82
2024/03/13 02:35:38;;;;;;;1.73;1.10;;;;;;;;;;4948903;28;20078;-82
2024/03/13 02:38:24;;;;;;;0.90;0.85;;;;;;;;;;4948299;28;20031;-83
2024/03/13 02:41:09;;;;;;;0.70;0.70;;;;;;;;;;4948622;29;20027;-81
2024/03/13 02:43:57;;;;;;;1.95;0.90;;;;;;;;;;4934206;29;20065;-82
2024/03/13 02:46:43;;;;;;;1.20;0.70;;;;;;;;;;4942610;28;20039;-82
2024/03/13 02:49:28;;;;;;;1.00;0.70;;;;;;;;;;4928926;28;20035;-82
2024/03/13 02:52:13;;;;;;;2.08;0.90;;;;;;;;;;4945373;29;20047;-82
2024/03/13 02:54:58;;;;;;;2.22;1.05;;;;;;;;;;4947255;28;20051;-82
2024/03/13 02:57:44;;;;;;;0.98;0.80;;;;;;;;;;4947596;29;20027;-81
2024/03/13 03:00:30;;;;;;;1.38;1.00;;;;;;;;;;4948124;29;20134;-81
2024/03/13 03:03:16;;;;;;;1.83;0.90;;;;;;;;;;4948632;28;20549;-81
2024/03/13 03:06:01;;;;;;;1.17;0.85;;;;;;;;;;4957315;28;20039;-81
2024/03/13 03:08:47;;;;;;;1.83;0.90;;;;;;;;;;4949485;28;20031;-82
2024/03/13 03:11:32;;;;;;;1.92;1.00;;;;;;;;;;4934331;29;20027;-81
2024/03/13 03:14:17;;;;;;;1.02;0.80;;;;;;;;;;4947505;29;20482;-81
2024/03/13 03:17:02;;;;;;;1.45;0.93;;;;;;;;;;4948623;28;20078;-81
2024/03/13 03:19:51;;;;;;;0.90;0.88;;;;;;;;;;4935427;29;20033;-81
2024/03/13 03:22:36;;;;;;;1.05;0.93;;;;;;;;;;4950070;29;20078;-83
2024/03/13 03:25:24;;;;;;;1.00;0.90;;;;;;;;;;4934706;28;20475;-83
2024/03/13 03:28:13;;;;;;;1.58;1.05;;;;;;;;;;4944869;28;20067;-83
2024/03/13 03:31:01;;;;;;;2.15;1.33;;;;;;;;;;4941437;28;20387;-82
2024/03/13 03:33:46;;;;;;;1.20;1.10;;;;;;;;;;4948042;28;20508;-82
2024/03/13 03:36:32;;;;;;;2.08;1.00;;;;;;;;;;4948521;28;20042;-82
2024/03/13 03:39:17;;;;;;;1.00;0.88;;;;;;;;;;4945986;28;20130;-82
2024/03/13 03:42:03;;;;;;;0.90;0.80;;;;;;;;;;4942484;29;20051;-80
2024/03/13 03:44:48;;;;;;;1.38;0.80;;;;;;;;;;4950461;28;20490;-83
2024/03/13 03:47:33;;;;;;;0.93;0.88;;;;;;;;;;4953917;28;20039;-83
2024/03/13 03:50:18;;;;;;;4.00;1.33;;;;;;;;;;4950164;29;20110;-83
2024/03/13 03:53:04;;;;;;;1.17;1.05;;;;;;;;;;4948561;28;20027;-83
2024/03/13 03:55:49;;;;;;;2.83;1.27;;;;;;;;;;4958533;28;20032;-80
2024/03/13 03:58:34;;;;;;;1.45;1.00;;;;;;;;;;4948157;28;20035;-82
2024/03/13 04:01:20;;;;;;;1.50;1.17;;;;;;;;;;4945954;29;20508;-82
2024/03/13 04:04:05;;;;;;;3.97;1.10;;;;;;;;;;4946865;28;20039;-82
2024/03/13 04:06:50;;;;;;;2.17;1.25;;;;;;;;;;4951964;28;20134;-82
2024/03/13 04:09:36;;;;;;;2.05;1.00;;;;;;;;;;4950031;28;20042;-81
2024/03/13 04:12:24;;;;;;;1.67;1.10;;;;;;;;;;4950485;28;20112;-82
2024/03/13 04:15:12;;;;;;;1.23;1.13;;;;;;;;;;4957732;28;20042;-82
2024/03/13 04:17:57;;;;;;;1.67;1.10;;;;;;;;;;4956019;28;20038;-80
2024/03/13 04:20:45;;;;;;;1.73;1.45;;;;;;;;;;4956886;28;20026;-81
2024/03/13 04:23:30;;;;;;;1.30;1.20;;;;;;;;;;4950271;29;20110;-82
2024/03/13 04:26:16;;;;;;;2.05;1.38;;;;;;;;;;4954575;28;20058;-82
2024/03/13 04:29:01;;;;;;;1.83;1.25;;;;;;;;;;4956346;28;20038;-81
2024/03/13 04:31:47;;;;;;;1.75;1.30;;;;;;;;;;4956965;28;20038;-81
2024/03/13 04:34:32;;;;;;;2.03;1.10;;;;;;;;;;4953807;28;20025;-81
2024/03/13 04:37:17;;;;;;;2.45;1.55;;;;;;;;;;4956446;28;20452;-84
2024/03/13 04:40:03;;;;;;;1.48;1.35;;;;;;;;;;4940185;28;20050;-83
2024/03/13 04:42:48;;;;;;;1.35;1.25;;;;;;;;;;4968757;28;20023;-83
2024/03/13 04:45:35;;;;;;;1.55;1.23;;;;;;;;;;4956211;28;20109;-85
2024/03/13 04:48:20;;;;;;;3.05;1.15;;;;;;;;;;4965844;28;20122;-82
2024/03/13 04:51:05;;;;;;;1.50;1.20;;;;;;;;;;4958337;28;20036;-82
2024/03/13 04:53:51;;;;;;;2.55;1.40;;;;;;;;;;4956568;28;20478;-81
2024/03/13 04:56:37;;;;;;;1.42;1.20;;;;;;;;;;4954717;28;20299;-84
2024/03/13 04:59:22;;;;;;;4.38;1.70;;;;;;;;;;4955434;28;20034;-83
2024/03/13 05:02:07;;;;;;;3.97;1.48;;;;;;;;;;4967333;28;20037;-82
2024/03/13 05:04:53;;;;;;;2.17;1.30;;;;;;;;;;4968332;28;20031;-83
2024/03/13 05:07:39;;;;;;;5.03;1.83;;;;;;;;;;4955012;28;20038;-82
2024/03/13 05:10:27;;;;;;;2.17;1.75;;;;;;;;;;4947216;28;20030;-81
2024/03/13 05:13:13;;;;;;;3.28;1.42;;;;;;;;;;4953063;28;20029;-82
2024/03/13 05:15:58;;;;;;;2.60;1.70;;;;;;;;;;4954386;28;20048;-82
2024/03/13 05:18:43;;;;;;;2.58;1.40;;;;;;;;;;4949158;28;20038;-81
2024/03/13 05:21:29;;;;;;;2.45;1.42;;;;;;;;;;4956622;28;20022;-82
2024/03/13 05:24:14;;;;;;;2.17;1.50;;;;;;;;;;4953338;28;20173;-81
2024/03/13 05:27:00;;;;;;;1.98;1.52;;;;;;;;;;4976265;28;20037;-81
2024/03/13 05:29:45;;;;;;;5.68;1.70;;;;;;;;;;4974339;28;20137;-81
2024/03/13 05:32:33;;;;;;;2.75;1.63;;;;;;;;;;4958211;28;20117;-81
2024/03/13 05:35:19;;;;;;;1.85;1.40;;;;;;;;;;4953967;28;20062;-80
2024/03/13 05:38:04;;;;;;;2.40;1.60;;;;;;;;;;4953380;28;20042;-81
2024/03/13 05:40:49;;;;;;;4.70;2.42;;;;;;;;;;4953286;28;20030;-80
2024/03/13 05:43:35;;;;;;;3.00;1.83;;;;;;;;;;4965476;28;20037;-79
2024/03/13 05:46:22;;;;;;;2.35;2.00;;;;;;;;;;4956502;28;20367;-79
2024/03/13 05:49:07;;;;;;;3.03;2.20;;;;;;;;;;4954326;28;20038;-80
2024/03/13 05:51:55;;;;;;;3.08;2.05;;;;;;;;;;4953027;28;20023;-81
2024/03/13 05:54:40;;;;;;;4.15;2.10;;;;;;;;;;4952677;28;20038;-80
2024/03/13 05:57:25;;;;;;;2.55;2.10;;;;;;;;;;4953569;28;20466;-81
2024/03/13 06:00:13;;;;;;;3.15;2.00;;;;;;;;;;4965884;28;20397;-80
2024/03/13 06:02:59;;;;;;;3.00;2.20;;;;;;;;;;4940105;28;20062;-82
2024/03/13 06:05:47;;;;;;;4.13;2.72;;;;;;;;;;4956718;28;20029;-84
2024/03/13 06:08:33;;;;;;;2.85;2.13;;;;;;;;;;4954856;28;20037;-84
2024/03/13 06:11:18;;;;;;;4.50;2.85;;;;;;;;;;4955231;28;20027;-84
2024/03/13 06:14:04;;;;;;;2.85;2.40;;;;;;;;;;4951811;28;20037;-85
2024/03/13 06:16:49;;;;;;;7.57;2.88;;;;;;;;;;4963990;28;20047;-84
2024/03/13 06:19:35;;;;;;;4.60;2.60;;;;;;;;;;4959280;28;20478;-84
2024/03/13 06:22:20;;;;;;;4.25;2.38;;;;;;;;;;4964523;28;20058;-83
2024/03/13 06:25:06;;;;;;;3.63;2.63;;;;;;;;;;4967148;28;20018;-84
2024/03/13 06:28:00;;;;;;;4.32;2.70;;;;;;;;;;4954382;28;20074;-82
2024/03/13 06:30:46;;;;;;;4.70;2.50;;;;;;;;;;4950325;28;20226;-83
2024/03/13 06:33:31;;;;;;;4.95;3.67;;;;;;;;;;4962834;28;20038;-81
2024/03/13 06:36:16;;;;;;;6.90;3.80;;;;;;;;;;4949543;28;20105;-81
2024/03/13 06:39:03;;;;;;;4.35;3.13;;;;;;;;;;4953292;28;20054;-81
2024/03/13 06:41:50;;;;;;;5.47;3.58;;;;;;;;;;4963944;28;20030;-81
2024/03/13 06:44:36;;;;;;;4.97;3.22;;;;;;;;;;4939666;28;20113;-82
2024/03/13 06:48:13;;;;;;;5.18;3.78;;;;;;;;;;4952170;28;20080;-81
2024/03/13 06:50:39;;;;;;;5.93;3.97;;;;;;;;;;4952395;28;20080;-80
2024/03/13 06:53:25;;;;;;;7.18;4.63;;;;;;;;;;4953482;28;20470;-81
2024/03/13 06:56:11;;;;;;;7.32;4.50;;;;;;;;;;4949834;28;20034;-80
2024/03/13 06:58:56;;;;;;;9.55;4.68;;;;;;;;;;4954543;28;20030;-80
2024/03/13 07:01:41;;;;;;;5.53;3.72;;;;;;;;;;4972353;28;20026;-80
2024/03/13 07:04:27;;;;;;;5.53;4.15;;;;;;;;;;4948774;28;20076;-79
2024/03/13 07:07:13;;;;;;;5.55;3.67;;;;;;;;;;4947738;28;20051;-79
2024/03/13 07:09:58;;;;;;;7.38;3.97;;;;;;;;;;4956007;28;20026;-78
2024/03/13 07:12:44;;;;;;;5.72;4.28;;;;;;;;;;4959120;28;20101;-79
2024/03/13 07:15:29;;;;;;;4.28;3.20;;;;;;;;;;4962299;28;20798;-78
2024/03/13 07:18:14;;;;;;;5.45;4.45;;;;;;;;;;4948997;28;20061;-78
2024/03/13 07:20:59;;;;;;;5.50;4.00;;;;;;;;;;4949803;28;20019;-78
2024/03/13 07:23:46;;;;;;;5.70;3.90;;;;;;;;;;4951278;28;20349;-78
2024/03/13 07:26:34;;;;;;;8.80;4.03;;;;;;;;;;4955857;28;20081;-77
2024/03/13 07:29:19;;;;;;;4.63;3.40;;;;;;;;;;4956724;28;20022;-80
2024/03/13 07:32:05;;;;;;;4.80;3.05;;;;;;;;;;4952330;28;20030;-79
2024/03/13 07:34:50;;;;;;;5.10;3.65;;;;;;;;;;4951741;28;20111;-79
2024/03/13 07:37:35;;;;;;;3.75;2.95;;;;;;;;;;4952842;28;20037;-78
2024/03/13 07:40:21;;;;;;;4.25;3.03;;;;;;;;;;4951492;28;20028;-79
2024/03/13 07:43:08;;;;;;;8.43;4.00;;;;;;;;;;4954372;28;20023;-78
2024/03/13 07:45:55;;;;;;;5.68;3.85;;;;;;;;;;4965547;28;20041;-77
2024/03/13 07:48:41;;;;;;;6.75;3.92;;;;;;;;;;4956684;28;20109;-78
2024/03/13 07:51:26;;;;;;;7.05;4.60;;;;;;;;;;4964979;28;20091;-78
2024/03/13 07:54:11;;;;;;;5.90;3.55;;;;;;;;;;4969205;28;20112;-78
2024/03/13 07:56:56;;;;;;;7.00;3.72;;;;;;;;;;4936416;28;20623;-78
2024/03/13 07:59:43;;;;;;;6.60;3.92;;;;;;;;;;4949920;28;20172;-77
2024/03/13 08:02:28;;;;;;;6.78;4.35;;;;;;;;;;4951546;28;20165;-79
2024/03/13 08:05:14;;;;;;;10.25;4.50;;;;;;;;;;4951273;28;20060;-79
2024/03/13 08:07:59;;;;;;;5.32;3.88;;;;;;;;;;4953525;28;20385;-78
2024/03/13 08:10:45;;;;;;;6.15;3.90;;;;;;;;;;4952335;28;20054;-78
2024/03/13 08:13:30;;;;;;;6.70;4.32;;;;;;;;;;4950665;28;20014;-79
2024/03/13 08:16:15;;;;;;;5.50;3.92;;;;;;;;;;4946001;28;20058;-79
2024/03/13 08:19:00;;;;;;;9.15;4.65;;;;;;;;;;4946526;28;20035;-80
2024/03/13 08:21:46;;;;;;;10.15;5.93;;;;;;;;;;4951689;28;20035;-80
2024/03/13 08:24:31;;;;;;;6.95;4.30;;;;;;;;;;4952187;28;20078;-79
2024/03/13 08:27:16;;;;;;;6.20;4.13;;;;;;;;;;4942744;28;20031;-79
2024/03/13 08:30:03;;;;;;;6.35;4.47;;;;;;;;;;4944707;28;20027;-80
2024/03/13 08:32:49;;;;;;;7.03;4.43;;;;;;;;;;4963486;28;20027;-80
2024/03/13 08:35:34;;;;;;;5.45;3.72;;;;;;;;;;4949219;28;20695;-80
2024/03/13 08:38:19;;;;;;;5.40;3.90;;;;;;;;;;4952642;28;20634;-80
2024/03/13 08:41:06;;;;;;;4.60;3.38;;;;;;;;;;4947978;28;20027;-81
2024/03/13 08:43:51;;;;;;;9.30;4.10;;;;;;;;;;4945528;28;20027;-79
2024/03/13 08:46:37;;;;;;;7.00;3.45;;;;;;;;;;4948376;28;20374;-81
2024/03/13 08:49:22;;;;;;;6.70;3.40;;;;;;;;;;4931273;29;20034;-78
2024/03/13 08:52:12;;;;;;;4.68;3.50;;;;;;;;;;4944235;28;20406;-81
2024/03/13 08:54:57;;;;;;;4.90;3.05;;;;;;;;;;4951405;28;20047;-80
2024/03/13 08:57:44;;;;;;;4.35;2.58;;;;;;;;;;4969647;28;20119;-80
2024/03/13 09:00:30;;;;;;;5.88;2.83;;;;;;;;;;4949114;28;20031;-80
2024/03/13 09:03:15;;;;;;;2.78;2.08;;;;;;;;;;4947393;28;20039;-82
2024/03/13 09:06:01;;;;;;;3.30;2.38;;;;;;;;;;4947753;28;20042;-80
2024/03/13 09:08:46;;;;;;;3.63;2.00;;;;;;;;;;4952963;28;20038;-79
2024/03/13 09:11:33;;;;;;;4.53;3.03;;;;;;;;;;4937446;28;20038;-79
2024/03/13 09:14:20;;;;;;;2.58;1.83;;;;;;;;;;4952009;28;20031;-80
2024/03/13 09:17:05;;;;;;;3.75;1.85;;;;;;;;;;4962205;28;20054;-78
2024/03/13 09:19:51;;;;;;;2.20;1.60;;;;;;;;;;4956474;28;20027;-79
2024/03/13 09:22:37;;;;;;;2.90;2.17;;;;;;;;;;4948356;28;20498;-79
2024/03/13 09:25:22;;;;;;;3.30;1.60;;;;;;;;;;4952972;28;20054;-79
2024/03/13 09:28:08;;;;;;;4.53;2.30;;;;;;;;;;4950613;28;20035;-80
2024/03/13 09:30:53;;;;;;;4.07;1.80;;;;;;;;;;4951674;28;20062;-78
2024/03/13 09:33:38;;;;;;;1.58;1.20;;;;;;;;;;4956059;28;20031;-79
2024/03/13 09:36:23;;;;;;;2.80;1.20;;;;;;;;;;4947344;28;20042;-79
2024/03/13 09:39:09;;;;;;;3.58;1.30;;;;;;;;;;4944117;28;20066;-80
2024/03/13 09:41:57;;;;;;;1.55;1.10;;;;;;;;;;4941680;28;20062;-80
2024/03/13 09:44:47;;;;;;;1.75;1.10;;;;;;;;;;4953731;28;20035;-80
2024/03/13 09:47:32;;;;;;;1.83;1.10;;;;;;;;;;4961044;28;20150;-77
2024/03/13 09:50:17;;;;;;;2.00;1.05;;;;;;;;;;4954371;28;20035;-80
2024/03/13 09:53:03;;;;;;;2.67;1.13;;;;;;;;;;4950316;28;20019;-79
2024/03/13 09:55:48;;;;;;;1.67;0.95;;;;;;;;;;4944630;28;20081;-79
2024/03/13 09:58:32;;;;;;;1.55;0.88;;;;;;;;;;4952816;28;20042;-79
2024/03/13 10:01:25;;;;;;;2.75;1.00;;;;;;;;;;4948036;28;20035;-79
2024/03/13 10:04:11;;;;;;;2.38;0.80;;;;;;;;;;4943373;28;20177;-80
2024/03/13 10:06:58;;;;;;;0.70;0.70;;;;;;;;;;4950260;28;20070;-79
2024/03/13 10:09:45;;;;;;;2.47;0.80;;;;;;;;;;4952789;28;20070;-80
2024/03/13 10:12:30;;;;;;;2.35;0.77;;;;;;;;;;4949094;28;20030;-79
2024/03/13 10:15:19;;;;;;;0.80;0.60;;;;;;;;;;4935931;28;20044;-80
2024/03/13 10:18:13;;;;;;;0.90;0.80;;;;;;;;;;4928305;29;20126;-79
2024/03/13 10:21:08;;;;;;;0.75;0.65;;;;;;;;;;4918655;29;20027;-80
2024/03/13 10:23:55;;;;;;;2.13;0.80;;;;;;;;;;4915432;29;20024;-80
2024/03/13 10:26:43;;;;;;;1.35;0.85;;;;;;;;;;4927935;29;20146;-80
2024/03/13 10:29:29;;;;;;;1.95;1.08;;;;;;;;;;4927942;29;20036;-80
2024/03/13 10:32:16;;;;;;;2.03;1.00;;;;;;;;;;4929644;29;20164;-80
2024/03/13 10:35:04;;;;;;;1.20;1.10;;;;;;;;;;4932469;29;20034;-80
2024/03/13 10:37:49;;;;;;;0.98;0.73;;;;;;;;;;4926656;29;20028;-79
2024/03/13 10:40:39;;;;;;;1.77;1.20;;;;;;;;;;4915455;29;20031;-80
2024/03/13 10:43:27;;;;;;;2.38;1.00;;;;;;;;;;4946097;28;20043;-79
2024/03/13 10:46:12;;;;;;;2.00;1.17;;;;;;;;;;4929280;29;20071;-80
2024/03/13 10:48:59;;;;;;;3.20;1.30;;;;;;;;;;4929158;29;20027;-82
2024/03/13 10:51:44;;;;;;;2.53;1.17;;;;;;;;;;4926626;29;20023;-81
2024/03/13 10:54:30;;;;;;;2.97;1.10;;;;;;;;;;4930046;29;20047;-82
2024/03/13 10:57:19;;;;;;;2.40;1.08;;;;;;;;;;4925581;29;20076;-81
2024/03/13 11:00:10;;;;;;;1.17;1.08;;;;;;;;;;4926839;29;20086;-81
2024/03/13 11:02:56;;;;;;;1.83;0.90;;;;;;;;;;4930349;29;20086;-80
2024/03/13 11:05:41;;;;;;;2.20;1.10;;;;;;;;;;4924082;29;20042;-80
2024/03/13 11:08:27;;;;;;;3.92;1.00;;;;;;;;;;4929252;29;20133;-79
2024/03/13 11:11:13;;;;;;;2.60;1.20;;;;;;;;;;4947990;29;20031;-80
2024/03/13 11:13:59;;;;;;;3.35;1.55;;;;;;;;;;4935421;29;20063;-79
2024/03/13 11:16:48;;;;;;;4.30;1.25;;;;;;;;;;4948575;28;20119;-79
2024/03/13 11:19:34;;;;;;;3.83;1.50;;;;;;;;;;4948496;28;20027;-80
2024/03/13 11:22:19;;;;;;;2.13;1.30;;;;;;;;;;4924392;29;20508;-79
2024/03/13 11:25:12;;;;;;;1.73;1.30;;;;;;;;;;4932490;29;20120;-79
2024/03/13 11:27:59;;;;;;;3.13;1.50;;;;;;;;;;4937585;29;20506;-79
2024/03/13 11:30:46;;;;;;;3.13;1.40;;;;;;;;;;4935142;29;20061;-80
2024/03/13 11:33:31;;;;;;;2.65;1.25;;;;;;;;;;4928730;29;20042;-79
2024/03/13 11:36:17;;;;;;;1.85;1.50;;;;;;;;;;4929152;29;20396;-79
2024/03/13 11:39:03;;;;;;;1.38;1.27;;;;;;;;;;4926640;29;20038;-79
2024/03/13 11:41:49;;;;;;;1.90;1.20;;;;;;;;;;4932707;29;20538;-78
2024/03/13 11:44:36;;;;;;;3.55;2.30;;;;;;;;;;4934080;29;20035;-79
2024/03/13 11:47:24;;;;;;;3.78;1.90;;;;;;;;;;4922928;29;20036;-79
2024/03/13 11:50:10;;;;;;;3.45;1.95;;;;;;;;;;4952476;28;20035;-79
2024/03/13 11:52:59;;;;;;;2.55;1.60;;;;;;;;;;4938337;29;20027;-79
2024/03/13 11:55:48;;;;;;;1.48;1.38;;;;;;;;;;4948147;28;20042;-79
2024/03/13 11:58:34;;;;;;;2.28;1.55;;;;;;;;;;4932075;29;20403;-80
2024/03/13 12:01:19;;;;;;;2.10;1.60;;;;;;;;;;4929677;29;20028;-79
2024/03/13 12:04:06;;;;;;;1.25;1.05;;;;;;;;;;4925789;29;20458;-79
2024/03/13 12:06:51;;;;;;;1.35;1.25;;;;;;;;;;4923477;29;20031;-80
2024/03/13 12:09:37;;;;;;;3.75;1.38;;;;;;;;;;4912872;29;20087;-79
2024/03/13 12:12:22;;;;;;;1.02;0.90;;;;;;;;;;4925059;29;20235;-81
2024/03/13 12:15:11;;;;;;;0.93;0.80;;;;;;;;;;4935429;28;20126;-79
2024/03/13 12:17:56;;;;;;;0.90;0.75;;;;;;;;;;4950189;28;20026;-79
2024/03/13 12:20:42;;;;;;;1.17;0.80;;;;;;;;;;4950868;28;20100;-79
2024/03/13 12:23:27;;;;;;;1.88;0.70;;;;;;;;;;4945704;28;20540;-79
2024/03/13 12:26:12;;;;;;;2.40;0.98;;;;;;;;;;4934634;28;20466;-79
2024/03/13 12:28:58;;;;;;;2.33;0.80;;;;;;;;;;4956705;28;20199;-82
2024/03/13 12:31:43;;;;;;;1.65;0.93;;;;;;;;;;4953357;28;20093;-81
2024/03/13 12:34:29;;;;;;;0.85;0.70;;;;;;;;;;4946818;28;20037;-81
2024/03/13 12:37:15;;;;;;;1.95;0.80;;;;;;;;;;4955996;28;20633;-81
2024/03/13 12:40:00;;;;;;;0.70;0.70;;;;;;;;;;4955196;28;20023;-81
2024/03/13 12:42:47;;;;;;;0.60;0.60;;;;;;;;;;4957022;28;20045;-80
2024/03/13 12:45:32;;;;;;;0.82;0.60;;;;;;;;;;4969062;28;20038;-77
2024/03/13 12:48:17;;;;;;;0.60;0.60;;;;;;;;;;4964699;28;20043;-79
2024/03/13 12:51:02;;;;;;;0.70;0.70;;;;;;;;;;4957876;28;20037;-80
2024/03/13 12:53:48;;;;;;;1.45;1.02;;;;;;;;;;4965954;28;20137;-79
2024/03/13 12:56:36;;;;;;;0.70;0.70;;;;;;;;;;4958679;28;20048;-80
2024/03/13 12:59:21;;;;;;;2.38;1.05;;;;;;;;;;4956898;28;20076;-79
2024/03/13 13:02:07;;;;;;;1.25;0.90;;;;;;;;;;4941503;28;20077;-79
2024/03/13 13:04:53;;;;;;;0.80;0.80;;;;;;;;;;4954001;28;20030;-78
2024/03/13 13:07:51;;;;;;;1.10;0.90;;;;;;;;;;4952719;28;20031;-78
2024/03/13 13:10:39;;;;;;;1.67;1.10;;;;;;;;;;4968044;28;20037;-79
2024/03/13 13:13:26;;;;;;;2.10;0.90;;;;;;;;;;4949960;28;20027;-79
2024/03/13 13:16:12;;;;;;;1.52;0.98;;;;;;;;;;4952970;28;20104;-79
2024/03/13 13:18:57;;;;;;;0.85;0.80;;;;;;;;;;4956105;28;20460;-80
2024/03/13 13:21:44;;;;;;;1.10;1.00;;;;;;;;;;4946053;28;20030;-81
2024/03/13 13:24:31;;;;;;;1.65;0.95;;;;;;;;;;4972103;28;20030;-80
2024/03/13 13:27:16;;;;;;;1.13;0.90;;;;;;;;;;4959142;28;20027;-81
2024/03/13 13:30:03;;;;;;;1.90;1.45;;;;;;;;;;4955101;28;20030;-81
2024/03/13 13:32:48;;;;;;;2.10;1.45;;;;;;;;;;4956096;28;20398;-80
2024/03/13 13:35:33;;;;;;;2.03;1.20;;;;;;;;;;4967039;28;20050;-80
2024/03/13 13:38:23;;;;;;;0.80;0.80;;;;;;;;;;4954604;28;20026;-80
2024/03/13 13:41:08;;;;;;;2.25;1.08;;;;;;;;;;4955104;28;20035;-81
2024/03/13 13:43:53;;;;;;;1.20;1.08;;;;;;;;;;4961359;28;20031;-80
2024/03/13 13:46:39;;;;;;;1.08;0.93;;;;;;;;;;4954797;28;20026;-81
2024/03/13 13:49:24;;;;;;;1.23;0.82;;;;;;;;;;4953009;28;20019;-81
2024/03/13 13:52:10;;;;;;;0.95;0.90;;;;;;;;;;4954155;28;20029;-80
2024/03/13 13:54:55;;;;;;;1.50;0.90;;;;;;;;;;4962283;28;20023;-82
2024/03/13 13:57:40;;;;;;;1.17;1.08;;;;;;;;;;4952853;28;20041;-81
2024/03/13 14:00:26;;;;;;;1.13;0.90;;;;;;;;;;4954052;28;20034;-80
2024/03/13 14:03:12;;;;;;;3.72;1.33;;;;;;;;;;4976394;28;20046;-79
2024/03/13 14:05:59;;;;;;;1.67;1.30;;;;;;;;;;4956684;28;20035;-79
2024/03/13 14:08:44;;;;;;;1.80;1.10;;;;;;;;;;4969431;28;20034;-80
2024/03/13 14:11:30;;;;;;;1.80;1.35;;;;;;;;;;4954424;28;20500;-80
2024/03/13 14:14:16;;;;;;;2.30;1.50;;;;;;;;;;4959390;28;20018;-80
2024/03/13 14:17:02;;;;;;;1.50;1.10;;;;;;;;;;4948873;28;20062;-80
2024/03/13 14:19:47;;;;;;;2.45;1.70;;;;;;;;;;4953614;28;20546;-80
2024/03/13 14:22:32;;;;;;;3.55;1.40;;;;;;;;;;4951432;28;20038;-78
2024/03/13 14:25:18;;;;;;;4.65;1.48;;;;;;;;;;4937798;28;20030;-83
2024/03/13 14:28:07;;;;;;;2.33;1.48;;;;;;;;;;4952672;28;20117;-87
2024/03/13 14:30:55;;;;;;;;;;;;;;;;;;4947650;28;20119;-85
2024/03/13 14:33:40;;;;;;;2.03;1.75;;;;;;;;;;4950051;28;19913;-86
2024/03/13 14:36:27;;;;;;;2.45;1.40;;;;;;;;;;4969138;28;20022;-86
2024/03/13 14:39:16;;;;;;;1.98;1.33;;;;;;;;;;4951293;28;20023;-83
2024/03/13 14:42:01;;;;;;;3.45;1.60;;;;;;;;;;4951033;28;20074;-86
2024/03/13 14:44:47;;;;;;;2.05;1.10;;;;;;;;;;4958021;28;20584;-82
2024/03/13 14:47:32;;;;;;;3.28;1.98;;;;;;;;;;4952645;28;20034;-83
2024/03/13 14:50:17;;;;;;;4.05;2.05;;;;;;;;;;4953959;28;20035;-82
2024/03/13 14:53:04;;;;;;;3.53;1.90;;;;;;;;;;4955112;28;20023;-83
2024/03/13 14:55:49;;;;;;;2.40;1.95;;;;;;;;;;4948229;28;20026;-81
2024/03/13 14:58:38;;;;;;;1.15;1.05;;;;;;;;;;4956463;28;20050;-84
2024/03/13 15:01:23;;;;;;;1.67;1.30;;;;;;;;;;4950285;28;20025;-85
2024/03/13 15:04:08;;;;;;;1.90;1.10;;;;;;;;;;4951304;28;20037;-81
2024/03/13 15:06:55;;;;;;;1.48;1.17;;;;;;;;;;4952177;28;20031;-81
2024/03/13 15:09:44;;;;;;;1.90;1.23;;;;;;;;;;4972065;28;20027;-85
2024/03/13 15:12:29;;;;;;;3.63;1.35;;;;;;;;;;4952887;28;20027;-86
2024/03/13 15:15:15;;;;;;;2.70;1.48;;;;;;;;;;4951046;28;20047;-86
2024/03/13 15:18:00;;;;;;;1.88;1.58;;;;;;;;;;4953540;28;20072;-88
2024/03/13 15:20:46;;;;;;;1.00;0.95;;;;;;;;;;4954254;28;20022;-88
2024/03/13 15:23:31;;;;;;;2.53;1.45;;;;;;;;;;4956175;28;20062;-84
2024/03/13 15:26:16;;;;;;;2.72;1.30;;;;;;;;;;4958575;28;20026;-84
2024/03/13 15:29:01;;;;;;;2.47;1.63;;;;;;;;;;4947216;28;20480;-80
2024/03/13 15:31:47;;;;;;;1.40;1.17;;;;;;;;;;4949212;28;20027;-83
2024/03/13 15:34:32;;;;;;;4.60;1.58;;;;;;;;;;4947498;28;20066;-80
2024/03/13 15:37:18;;;;;;;1.33;1.10;;;;;;;;;;4951511;28;20022;-80
2024/03/13 15:40:06;;;;;;;3.20;1.38;;;;;;;;;;4949550;28;20035;-80
2024/03/13 15:42:55;;;;;;;1.85;1.33;;;;;;;;;;4953038;28;20031;-79
2024/03/13 15:45:41;;;;;;;1.67;1.10;;;;;;;;;;4951330;28;20097;-81
2024/03/13 15:48:26;;;;;;;1.42;1.20;;;;;;;;;;4954305;28;20049;-83
2024/03/13 15:51:11;;;;;;;3.25;1.10;;;;;;;;;;4948184;28;20031;-80
2024/03/13 15:53:57;;;;;;;1.50;1.13;;;;;;;;;;4962694;28;20050;-81
2024/03/13 15:56:42;;;;;;;3.63;1.70;;;;;;;;;;4957031;28;20030;-80
2024/03/13 15:59:27;;;;;;;2.10;1.60;;;;;;;;;;4953720;28;20042;-80
2024/03/13 16:02:13;;;;;;;3.55;1.13;;;;;;;;;;4985676;28;20162;-80
2024/03/13 16:04:58;;;;;;;1.90;1.35;;;;;;;;;;4961708;28;20098;-81
2024/03/13 16:07:46;;;;;;;5.38;1.65;;;;;;;;;;4971058;28;20038;-81
2024/03/13 16:10:31;;;;;;;7.00;1.73;;;;;;;;;;4958851;28;20029;-80
2024/03/13 16:13:17;;;;;;;1.70;1.33;;;;;;;;;;4956645;28;20181;-81
2024/03/13 16:16:02;;;;;;;1.80;1.25;;;;;;;;;;4964128;28;20457;-78
2024/03/13 16:18:48;;;;;;;2.75;1.23;;;;;;;;;;4962159;28;20131;-80
2024/03/13 16:21:32;;;;;;;2.13;1.20;;;;;;;;;;4985780;28;20083;-80
2024/03/13 16:24:15;;;;;;;2.65;1.50;;;;;;;;;;5000295;28;20034;-78
2024/03/13 16:27:01;;;;;;;1.75;1.20;;;;;;;;;;4987321;28;20038;-80
2024/03/13 16:29:46;;;;;;;3.10;1.88;;;;;;;;;;4986880;28;20030;-80
2024/03/13 16:32:44;;;;;;;3.13;1.55;;;;;;;;;;4967816;28;20069;-81
2024/03/13 16:35:30;;;;;;;2.85;1.42;;;;;;;;;;4962159;28;20026;-80
2024/03/13 16:38:18;;;;;;;2.58;1.48;;;;;;;;;;4954563;28;20061;-81
2024/03/13 16:41:03;;;;;;;1.75;1.23;;;;;;;;;;4958818;28;20023;-80
2024/03/13 16:43:48;;;;;;;6.78;2.20;;;;;;;;;;4970385;28;20440;-80
2024/03/13 16:46:34;;;;;;;4.82;1.88;;;;;;;;;;4955858;28;20054;-79
2024/03/13 16:49:19;;;;;;;3.70;2.05;;;;;;;;;;4969848;28;20037;-78
2024/03/13 16:52:04;;;;;;;2.67;1.50;;;;;;;;;;4957056;28;20542;-78